sensor_id;sensor_type;location;lat;lon;timestamp;pressure;altitude;pressure_sealevel;temperature
13219;BMP180;6674;49.152;11.918;2023-03-15T00:01:00;95219.13;;;3.85
13219;BMP180;6674;49.152;11.918;2023-03-15T00:03:29;95226.03;;;3.44
13219;BMP180;6674;49.152;11.918;2023-03-15T00:05:55;95214.16;;;3.64
13219;BMP180;6674;49.152;11.918;2023-03-15T00:08:22;95214.97;;;3.71
13219;BMP180;6674;49.152;11.918;2023-03-15T00:10:49;95220.84;;;3.71
13219;BMP180;6674;49.152;11.918;2023-03-15T00:13:15;95221.22;;;3.75
13219;BMP180;6674;49.152;11.918;2023-03-15T00:15:46;95232.22;;;3.69
13219;BMP180;6674;49.152;11.918;2023-03-15T00:18:14;95248.31;;;3.76
13219;BMP180;6674;49.152;11.918;2023-03-15T00:20:42;95260.66;;;3.72
13219;BMP180;6674;49.152;11.918;2023-03-15T00:23:09;95262.00;;;3.62
13219;BMP180;6674;49.152;11.918;2023-03-15T00:25:36;95271.06;;;3.71
13219;BMP180;6674;49.152;11.918;2023-03-15T00:28:03;95270.31;;;3.77
13219;BMP180;6674;49.152;11.918;2023-03-15T00:30:30;95273.97;;;3.68
13219;BMP180;6674;49.152;11.918;2023-03-15T00:32:57;95264.38;;;3.70
13219;BMP180;6674;49.152;11.918;2023-03-15T00:35:24;95266.47;;;3.53
13219;BMP180;6674;49.152;11.918;2023-03-15T00:37:54;95267.50;;;3.65
13219;BMP180;6674;49.152;11.918;2023-03-15T00:40:21;95270.41;;;3.56
13219;BMP180;6674;49.152;11.918;2023-03-15T00:42:48;95280.44;;;3.64
13219;BMP180;6674;49.152;11.918;2023-03-15T00:45:15;95282.63;;;3.67
13219;BMP180;6674;49.152;11.918;2023-03-15T00:47:42;95278.66;;;3.58
13219;BMP180;6674;49.152;11.918;2023-03-15T00:50:09;95276.50;;;3.61
13219;BMP180;6674;49.152;11.918;2023-03-15T00:52:36;95275.88;;;3.53
13219;BMP180;6674;49.152;11.918;2023-03-15T00:55:05;95281.19;;;3.58
13219;BMP180;6674;49.152;11.918;2023-03-15T00:57:32;95288.84;;;3.58
13219;BMP180;6674;49.152;11.918;2023-03-15T00:59:59;95295.69;;;3.51
13219;BMP180;6674;49.152;11.918;2023-03-15T01:02:29;95294.91;;;3.50
13219;BMP180;6674;49.152;11.918;2023-03-15T01:04:56;95303.91;;;3.53
13219;BMP180;6674;49.152;11.918;2023-03-15T01:07:22;95303.50;;;3.49
13219;BMP180;6674;49.152;11.918;2023-03-15T01:09:49;95302.72;;;3.49
13219;BMP180;6674;49.152;11.918;2023-03-15T01:12:17;95308.81;;;3.48
13219;BMP180;6674;49.152;11.918;2023-03-15T01:14:44;95308.63;;;3.49
13219;BMP180;6674;49.152;11.918;2023-03-15T01:17:10;95306.81;;;3.43
13219;BMP180;6674;49.152;11.918;2023-03-15T01:19:37;95309.56;;;3.48
13219;BMP180;6674;49.152;11.918;2023-03-15T01:22:04;95311.16;;;3.49
13219;BMP180;6674;49.152;11.918;2023-03-15T01:24:30;95312.50;;;3.45
13219;BMP180;6674;49.152;11.918;2023-03-15T01:26:57;95296.41;;;3.45
13219;BMP180;6674;49.152;11.918;2023-03-15T01:29:25;95307.13;;;3.34
13219;BMP180;6674;49.152;11.918;2023-03-15T01:31:51;95302.31;;;3.45
13219;BMP180;6674;49.152;11.918;2023-03-15T01:34:18;95303.47;;;3.43
13219;BMP180;6674;49.152;11.918;2023-03-15T01:36:48;95299.56;;;3.47
13219;BMP180;6674;49.152;11.918;2023-03-15T01:39:16;95304.09;;;3.51
13219;BMP180;6674;49.152;11.918;2023-03-15T01:41:42;95299.78;;;3.52
13219;BMP180;6674;49.152;11.918;2023-03-15T01:44:12;95298.75;;;3.40
13219;BMP180;6674;49.152;11.918;2023-03-15T01:46:40;95299.56;;;3.47
13219;BMP180;6674;49.152;11.918;2023-03-15T01:49:08;95306.22;;;3.42
13219;BMP180;6674;49.152;11.918;2023-03-15T01:51:40;95320.53;;;3.42
13219;BMP180;6674;49.152;11.918;2023-03-15T01:54:14;95320.72;;;3.41
13219;BMP180;6674;49.152;11.918;2023-03-15T01:56:45;95329.16;;;3.42
13219;BMP180;6674;49.152;11.918;2023-03-15T01:59:16;95333.56;;;3.27
13219;BMP180;6674;49.152;11.918;2023-03-15T02:01:45;95336.97;;;3.40
13219;BMP180;6674;49.152;11.918;2023-03-15T02:04:16;95347.41;;;3.45
13219;BMP180;6674;49.152;11.918;2023-03-15T02:06:45;95361.16;;;3.44
13219;BMP180;6674;49.152;11.918;2023-03-15T02:09:17;95372.53;;;3.48
13219;BMP180;6674;49.152;11.918;2023-03-15T02:11:44;95380.31;;;3.40
13219;BMP180;6674;49.152;11.918;2023-03-15T02:14:11;95382.31;;;2.97
13219;BMP180;6674;49.152;11.918;2023-03-15T02:16:38;95384.91;;;2.82
13219;BMP180;6674;49.152;11.918;2023-03-15T02:19:11;95394.94;;;3.04
13219;BMP180;6674;49.152;11.918;2023-03-15T02:21:47;95398.34;;;2.91
13219;BMP180;6674;49.152;11.918;2023-03-15T02:24:24;95399.53;;;2.95
13219;BMP180;6674;49.152;11.918;2023-03-15T02:26:54;95401.06;;;2.89
13219;BMP180;6674;49.152;11.918;2023-03-15T02:29:24;95397.06;;;2.80
13219;BMP180;6674;49.152;11.918;2023-03-15T02:31:52;95399.84;;;2.64
13219;BMP180;6674;49.152;11.918;2023-03-15T02:34:20;95407.06;;;2.82
13219;BMP180;6674;49.152;11.918;2023-03-15T02:36:49;95408.06;;;2.46
13219;BMP180;6674;49.152;11.918;2023-03-15T02:39:18;95422.09;;;2.42
13219;BMP180;6674;49.152;11.918;2023-03-15T02:41:48;95431.38;;;2.49
13219;BMP180;6674;49.152;11.918;2023-03-15T02:44:18;95431.19;;;2.65
13219;BMP180;6674;49.152;11.918;2023-03-15T02:46:50;95428.28;;;2.68
13219;BMP180;6674;49.152;11.918;2023-03-15T02:49:20;95439.41;;;2.67
13219;BMP180;6674;49.152;11.918;2023-03-15T02:51:47;95442.56;;;2.69
13219;BMP180;6674;49.152;11.918;2023-03-15T02:54:14;95460.19;;;2.85
13219;BMP180;6674;49.152;11.918;2023-03-15T02:56:40;95461.53;;;2.81
13219;BMP180;6674;49.152;11.918;2023-03-15T02:59:07;95466.09;;;2.71
13219;BMP180;6674;49.152;11.918;2023-03-15T03:01:34;95474.25;;;2.81
13219;BMP180;6674;49.152;11.918;2023-03-15T03:04:03;95470.00;;;2.88
13219;BMP180;6674;49.152;11.918;2023-03-15T03:06:29;95464.06;;;2.81
13219;BMP180;6674;49.152;11.918;2023-03-15T03:08:56;95461.38;;;2.89
13219;BMP180;6674;49.152;11.918;2023-03-15T03:11:23;95467.72;;;2.93
13219;BMP180;6674;49.152;11.918;2023-03-15T03:13:49;95469.09;;;2.74
13219;BMP180;6674;49.152;11.918;2023-03-15T03:16:16;95493.38;;;2.77
13219;BMP180;6674;49.152;11.918;2023-03-15T03:18:43;95504.19;;;2.79
13219;BMP180;6674;49.152;11.918;2023-03-15T03:21:10;95486.03;;;2.67
13219;BMP180;6674;49.152;11.918;2023-03-15T03:23:39;95502.22;;;2.60
13219;BMP180;6674;49.152;11.918;2023-03-15T03:26:11;95505.88;;;2.72
13219;BMP180;6674;49.152;11.918;2023-03-15T03:28:41;95513.97;;;2.61
13219;BMP180;6674;49.152;11.918;2023-03-15T03:31:15;95518.59;;;2.72
13219;BMP180;6674;49.152;11.918;2023-03-15T03:33:41;95514.13;;;2.74
13219;BMP180;6674;49.152;11.918;2023-03-15T03:36:08;95519.94;;;2.68
13219;BMP180;6674;49.152;11.918;2023-03-15T03:38:39;95545.31;;;2.76
13219;BMP180;6674;49.152;11.918;2023-03-15T03:41:05;95546.97;;;2.69
13219;BMP180;6674;49.152;11.918;2023-03-15T03:43:32;95550.84;;;2.79
13219;BMP180;6674;49.152;11.918;2023-03-15T03:45:59;95558.03;;;2.76
13219;BMP180;6674;49.152;11.918;2023-03-15T03:48:25;95562.84;;;2.71
13219;BMP180;6674;49.152;11.918;2023-03-15T03:50:52;95576.13;;;2.81
13219;BMP180;6674;49.152;11.918;2023-03-15T03:53:19;95565.13;;;2.66
13219;BMP180;6674;49.152;11.918;2023-03-15T03:55:47;95575.78;;;2.41
13219;BMP180;6674;49.152;11.918;2023-03-15T03:58:13;95569.78;;;2.48
13219;BMP180;6674;49.152;11.918;2023-03-15T04:00:40;95571.81;;;2.38
13219;BMP180;6674;49.152;11.918;2023-03-15T04:03:07;95585.34;;;2.53
13219;BMP180;6674;49.152;11.918;2023-03-15T04:05:34;95586.50;;;2.65
13219;BMP180;6674;49.152;11.918;2023-03-15T04:08:01;95586.22;;;2.74
13219;BMP180;6674;49.152;11.918;2023-03-15T04:10:27;95592.28;;;2.59
13219;BMP180;6674;49.152;11.918;2023-03-15T04:13:00;95593.22;;;2.72
13219;BMP180;6674;49.152;11.918;2023-03-15T04:15:27;95604.22;;;2.73
13219;BMP180;6674;49.152;11.918;2023-03-15T04:17:54;95610.88;;;2.74
13219;BMP180;6674;49.152;11.918;2023-03-15T04:20:21;95620.34;;;2.51
13219;BMP180;6674;49.152;11.918;2023-03-15T04:22:47;95617.03;;;2.51
13219;BMP180;6674;49.152;11.918;2023-03-15T04:25:14;95616.84;;;2.52
13219;BMP180;6674;49.152;11.918;2023-03-15T04:27:41;95616.16;;;2.58
13219;BMP180;6674;49.152;11.918;2023-03-15T04:30:11;95616.25;;;2.50
13219;BMP180;6674;49.152;11.918;2023-03-15T04:32:37;95626.09;;;2.53
13219;BMP180;6674;49.152;11.918;2023-03-15T04:35:04;95627.81;;;2.53
13219;BMP180;6674;49.152;11.918;2023-03-15T04:37:31;95630.72;;;2.50
13219;BMP180;6674;49.152;11.918;2023-03-15T04:39:58;95644.06;;;2.52
13219;BMP180;6674;49.152;11.918;2023-03-15T04:42:25;95645.97;;;2.35
13219;BMP180;6674;49.152;11.918;2023-03-15T04:44:52;95660.44;;;2.35
13219;BMP180;6674;49.152;11.918;2023-03-15T04:47:20;95655.19;;;2.36
13219;BMP180;6674;49.152;11.918;2023-03-15T04:49:47;95676.00;;;2.54
13219;BMP180;6674;49.152;11.918;2023-03-15T04:52:14;95678.56;;;2.54
13219;BMP180;6674;49.152;11.918;2023-03-15T04:54:41;95673.97;;;2.50
13219;BMP180;6674;49.152;11.918;2023-03-15T04:57:07;95686.09;;;2.48
13219;BMP180;6674;49.152;11.918;2023-03-15T04:59:34;95685.75;;;2.51
13219;BMP180;6674;49.152;11.918;2023-03-15T05:02:00;95697.78;;;2.42
13219;BMP180;6674;49.152;11.918;2023-03-15T05:04:28;95691.97;;;2.48
13219;BMP180;6674;49.152;11.918;2023-03-15T05:06:55;95702.19;;;2.26
13219;BMP180;6674;49.152;11.918;2023-03-15T05:09:21;95711.84;;;2.30
13219;BMP180;6674;49.152;11.918;2023-03-15T05:11:48;95712.50;;;2.32
13219;BMP180;6674;49.152;11.918;2023-03-15T05:14:15;95716.44;;;2.35
13219;BMP180;6674;49.152;11.918;2023-03-15T05:16:41;95724.69;;;2.37
13219;BMP180;6674;49.152;11.918;2023-03-15T05:19:08;95731.81;;;2.19
13219;BMP180;6674;49.152;11.918;2023-03-15T05:21:36;95733.28;;;2.13
13219;BMP180;6674;49.152;11.918;2023-03-15T05:24:03;95736.22;;;2.25
13219;BMP180;6674;49.152;11.918;2023-03-15T05:26:30;95744.09;;;2.15
13219;BMP180;6674;49.152;11.918;2023-03-15T05:28:56;95751.84;;;2.00
13219;BMP180;6674;49.152;11.918;2023-03-15T05:31:23;95756.03;;;2.15
13219;BMP180;6674;49.152;11.918;2023-03-15T05:33:49;95756.47;;;2.18
13219;BMP180;6674;49.152;11.918;2023-03-15T05:36:18;95758.06;;;2.19
13219;BMP180;6674;49.152;11.918;2023-03-15T05:38:47;95768.88;;;2.21
13219;BMP180;6674;49.152;11.918;2023-03-15T05:41:13;95777.84;;;2.10
13219;BMP180;6674;49.152;11.918;2023-03-15T05:43:42;95785.16;;;2.13
13219;BMP180;6674;49.152;11.918;2023-03-15T05:46:09;95789.34;;;1.98
13219;BMP180;6674;49.152;11.918;2023-03-15T05:48:36;95796.06;;;1.91
13219;BMP180;6674;49.152;11.918;2023-03-15T05:51:02;95793.19;;;1.94
13219;BMP180;6674;49.152;11.918;2023-03-15T05:53:29;95805.81;;;1.79
13219;BMP180;6674;49.152;11.918;2023-03-15T05:55:57;95797.09;;;1.74
13219;BMP180;6674;49.152;11.918;2023-03-15T05:58:23;95818.88;;;1.69
13219;BMP180;6674;49.152;11.918;2023-03-15T06:00:50;95824.75;;;1.77
13219;BMP180;6674;49.152;11.918;2023-03-15T06:03:16;95823.91;;;1.84
13219;BMP180;6674;49.152;11.918;2023-03-15T06:05:43;95834.72;;;1.78
13219;BMP180;6674;49.152;11.918;2023-03-15T06:08:10;95829.47;;;1.88
13219;BMP180;6674;49.152;11.918;2023-03-15T06:10:36;95831.75;;;1.67
13219;BMP180;6674;49.152;11.918;2023-03-15T06:13:04;95829.22;;;1.67
13219;BMP180;6674;49.152;11.918;2023-03-15T06:15:31;95825.28;;;1.57
13219;BMP180;6674;49.152;11.918;2023-03-15T06:17:58;95830.19;;;1.66
13219;BMP180;6674;49.152;11.918;2023-03-15T06:20:25;95839.72;;;1.72
13219;BMP180;6674;49.152;11.918;2023-03-15T06:22:51;95842.69;;;1.83
13219;BMP180;6674;49.152;11.918;2023-03-15T06:25:18;95841.28;;;1.73
13219;BMP180;6674;49.152;11.918;2023-03-15T06:27:45;95842.56;;;1.77
13219;BMP180;6674;49.152;11.918;2023-03-15T06:30:13;95856.81;;;1.86
13219;BMP180;6674;49.152;11.918;2023-03-15T06:32:40;95857.59;;;1.86
13219;BMP180;6674;49.152;11.918;2023-03-15T06:35:07;95860.28;;;1.85
13219;BMP180;6674;49.152;11.918;2023-03-15T06:37:34;95876.88;;;1.73
13219;BMP180;6674;49.152;11.918;2023-03-15T06:40:01;95868.91;;;1.84
13219;BMP180;6674;49.152;11.918;2023-03-15T06:42:30;95863.94;;;1.90
13219;BMP180;6674;49.152;11.918;2023-03-15T06:44:56;95872.78;;;2.02
13219;BMP180;6674;49.152;11.918;2023-03-15T06:47:24;95875.22;;;1.96
13219;BMP180;6674;49.152;11.918;2023-03-15T06:49:51;95891.13;;;1.90
13219;BMP180;6674;49.152;11.918;2023-03-15T06:52:18;95887.31;;;1.94
13219;BMP180;6674;49.152;11.918;2023-03-15T06:54:44;95884.91;;;1.92
13219;BMP180;6674;49.152;11.918;2023-03-15T06:57:11;95897.78;;;1.91
13219;BMP180;6674;49.152;11.918;2023-03-15T06:59:38;95892.03;;;2.05
13219;BMP180;6674;49.152;11.918;2023-03-15T07:02:05;95900.00;;;2.02
13219;BMP180;6674;49.152;11.918;2023-03-15T07:04:33;95904.47;;;2.00
13219;BMP180;6674;49.152;11.918;2023-03-15T07:07:00;95894.44;;;1.98
13219;BMP180;6674;49.152;11.918;2023-03-15T07:09:26;95904.88;;;2.11
13219;BMP180;6674;49.152;11.918;2023-03-15T07:11:53;95901.81;;;2.15
13219;BMP180;6674;49.152;11.918;2023-03-15T07:14:19;95901.50;;;2.18
13219;BMP180;6674;49.152;11.918;2023-03-15T07:16:46;95912.31;;;2.20
13219;BMP180;6674;49.152;11.918;2023-03-15T07:19:13;95912.78;;;2.24
13219;BMP180;6674;49.152;11.918;2023-03-15T07:21:41;95910.41;;;2.22
13219;BMP180;6674;49.152;11.918;2023-03-15T07:24:07;95916.75;;;2.26
13219;BMP180;6674;49.152;11.918;2023-03-15T07:26:34;95919.31;;;2.18
13219;BMP180;6674;49.152;11.918;2023-03-15T07:29:00;95916.31;;;2.15
13219;BMP180;6674;49.152;11.918;2023-03-15T07:31:27;95920.00;;;2.13
13219;BMP180;6674;49.152;11.918;2023-03-15T07:33:54;95922.72;;;2.03
13219;BMP180;6674;49.152;11.918;2023-03-15T07:36:20;95920.03;;;2.05
13219;BMP180;6674;49.152;11.918;2023-03-15T07:38:49;95917.81;;;2.02
13219;BMP180;6674;49.152;11.918;2023-03-15T07:41:15;95933.06;;;2.02
13219;BMP180;6674;49.152;11.918;2023-03-15T07:43:42;95929.91;;;2.00
13219;BMP180;6674;49.152;11.918;2023-03-15T07:46:09;95924.81;;;1.92
13219;BMP180;6674;49.152;11.918;2023-03-15T07:48:35;95931.78;;;1.98
13219;BMP180;6674;49.152;11.918;2023-03-15T07:51:02;95933.69;;;1.96
13219;BMP180;6674;49.152;11.918;2023-03-15T07:53:29;95937.69;;;1.98
13219;BMP180;6674;49.152;11.918;2023-03-15T07:55:57;95955.94;;;2.10
13219;BMP180;6674;49.152;11.918;2023-03-15T07:58:23;95941.78;;;2.07
13219;BMP180;6674;49.152;11.918;2023-03-15T08:00:53;95947.69;;;2.00
13219;BMP180;6674;49.152;11.918;2023-03-15T08:03:20;95936.69;;;2.07
13219;BMP180;6674;49.152;11.918;2023-03-15T08:05:46;95948.31;;;2.10
13219;BMP180;6674;49.152;11.918;2023-03-15T08:08:13;95940.66;;;2.10
13219;BMP180;6674;49.152;11.918;2023-03-15T08:10:39;95944.47;;;2.13
13219;BMP180;6674;49.152;11.918;2023-03-15T08:13:08;95936.81;;;2.13
13219;BMP180;6674;49.152;11.918;2023-03-15T08:15:35;95943.66;;;2.13
13219;BMP180;6674;49.152;11.918;2023-03-15T08:18:02;95950.53;;;2.13
13219;BMP180;6674;49.152;11.918;2023-03-15T08:20:29;95934.25;;;2.21
13219;BMP180;6674;49.152;11.918;2023-03-15T08:22:58;95934.66;;;2.41
13219;BMP180;6674;49.152;11.918;2023-03-15T08:25:26;95931.56;;;2.53
13219;BMP180;6674;49.152;11.918;2023-03-15T08:27:53;95933.88;;;2.62
13219;BMP180;6674;49.152;11.918;2023-03-15T08:30:21;95939.78;;;2.63
13219;BMP180;6674;49.152;11.918;2023-03-15T08:32:48;95935.47;;;2.63
13219;BMP180;6674;49.152;11.918;2023-03-15T08:35:18;95931.09;;;2.80
13219;BMP180;6674;49.152;11.918;2023-03-15T08:37:45;95945.06;;;2.61
13219;BMP180;6674;49.152;11.918;2023-03-15T08:40:13;95946.78;;;2.61
13219;BMP180;6674;49.152;11.918;2023-03-15T08:42:40;95943.09;;;2.71
13219;BMP180;6674;49.152;11.918;2023-03-15T08:45:08;95953.59;;;2.68
13219;BMP180;6674;49.152;11.918;2023-03-15T08:47:36;95957.06;;;2.75
13219;BMP180;6674;49.152;11.918;2023-03-15T08:50:06;95957.91;;;2.90
13219;BMP180;6674;49.152;11.918;2023-03-15T08:52:33;95953.28;;;2.94
13219;BMP180;6674;49.152;11.918;2023-03-15T08:54:59;95965.97;;;3.01
13219;BMP180;6674;49.152;11.918;2023-03-15T08:57:26;95962.59;;;3.09
13219;BMP180;6674;49.152;11.918;2023-03-15T08:59:53;95977.19;;;2.93
13219;BMP180;6674;49.152;11.918;2023-03-15T09:02:20;95980.34;;;2.95
13219;BMP180;6674;49.152;11.918;2023-03-15T09:04:49;95971.19;;;3.08
13219;BMP180;6674;49.152;11.918;2023-03-15T09:07:16;95979.91;;;3.13
13219;BMP180;6674;49.152;11.918;2023-03-15T09:09:42;95992.94;;;3.18
13219;BMP180;6674;49.152;11.918;2023-03-15T09:12:12;95978.59;;;3.40
13219;BMP180;6674;49.152;11.918;2023-03-15T09:14:39;95985.91;;;3.42
13219;BMP180;6674;49.152;11.918;2023-03-15T09:17:08;95990.09;;;3.58
13219;BMP180;6674;49.152;11.918;2023-03-15T09:19:35;96000.28;;;3.58
13219;BMP180;6674;49.152;11.918;2023-03-15T09:22:03;95985.44;;;3.61
13219;BMP180;6674;49.152;11.918;2023-03-15T09:24:30;95995.41;;;3.48
13219;BMP180;6674;49.152;11.918;2023-03-15T09:26:57;95990.69;;;3.60
13219;BMP180;6674;49.152;11.918;2023-03-15T09:29:23;96001.81;;;3.67
13219;BMP180;6674;49.152;11.918;2023-03-15T09:31:50;96003.19;;;3.55
13219;BMP180;6674;49.152;11.918;2023-03-15T09:34:16;96009.09;;;3.70
13219;BMP180;6674;49.152;11.918;2023-03-15T09:36:43;96006.34;;;3.93
13219;BMP180;6674;49.152;11.918;2023-03-15T09:39:11;96008.41;;;4.12
13219;BMP180;6674;49.152;11.918;2023-03-15T09:41:41;96018.06;;;4.17
13219;BMP180;6674;49.152;11.918;2023-03-15T09:44:15;96019.56;;;4.11
13219;BMP180;6674;49.152;11.918;2023-03-15T09:46:56;96023.69;;;3.98
13219;BMP180;6674;49.152;11.918;2023-03-15T09:49:33;96023.88;;;3.96
13219;BMP180;6674;49.152;11.918;2023-03-15T09:52:07;96027.56;;;3.94
13219;BMP180;6674;49.152;11.918;2023-03-15T09:54:40;96034.31;;;3.87
13219;BMP180;6674;49.152;11.918;2023-03-15T09:57:14;96025.88;;;3.86
13219;BMP180;6674;49.152;11.918;2023-03-15T09:59:45;96026.88;;;4.00
13219;BMP180;6674;49.152;11.918;2023-03-15T10:02:17;96029.06;;;4.03
13219;BMP180;6674;49.152;11.918;2023-03-15T10:04:46;96024.47;;;3.98
13219;BMP180;6674;49.152;11.918;2023-03-15T10:07:15;96028.91;;;4.04
13219;BMP180;6674;49.152;11.918;2023-03-15T10:09:44;96035.38;;;3.92
13219;BMP180;6674;49.152;11.918;2023-03-15T10:12:13;96033.09;;;3.83
13219;BMP180;6674;49.152;11.918;2023-03-15T10:15:05;96018.84;;;3.88
13219;BMP180;6674;49.152;11.918;2023-03-15T10:17:40;96021.84;;;3.92
13219;BMP180;6674;49.152;11.918;2023-03-15T10:20:11;96035.03;;;3.95
13219;BMP180;6674;49.152;11.918;2023-03-15T10:22:45;96032.22;;;3.90
13219;BMP180;6674;49.152;11.918;2023-03-15T10:25:17;96032.41;;;4.03
13219;BMP180;6674;49.152;11.918;2023-03-15T10:27:47;96032.50;;;4.10
13219;BMP180;6674;49.152;11.918;2023-03-15T10:30:17;96017.06;;;4.40
13219;BMP180;6674;49.152;11.918;2023-03-15T10:32:47;96020.38;;;4.55
13219;BMP180;6674;49.152;11.918;2023-03-15T10:35:16;96017.56;;;4.35
13219;BMP180;6674;49.152;11.918;2023-03-15T10:37:43;96012.00;;;4.61
13219;BMP180;6674;49.152;11.918;2023-03-15T10:40:40;96011.28;;;4.81
13219;BMP180;6674;49.152;11.918;2023-03-15T10:43:18;96008.56;;;4.82
13219;BMP180;6674;49.152;11.918;2023-03-15T10:45:47;95996.78;;;5.02
13219;BMP180;6674;49.152;11.918;2023-03-15T10:48:22;96011.69;;;5.34
13219;BMP180;6674;49.152;11.918;2023-03-15T10:50:50;96002.53;;;5.46
13219;BMP180;6674;49.152;11.918;2023-03-15T10:53:18;96013.13;;;5.22
13219;BMP180;6674;49.152;11.918;2023-03-15T10:55:48;95996.34;;;4.99
13219;BMP180;6674;49.152;11.918;2023-03-15T10:58:20;95995.84;;;4.89
13219;BMP180;6674;49.152;11.918;2023-03-15T11:00:53;95994.19;;;4.81
13219;BMP180;6674;49.152;11.918;2023-03-15T11:03:24;95989.00;;;5.10
13219;BMP180;6674;49.152;11.918;2023-03-15T11:05:52;95978.34;;;5.07
13219;BMP180;6674;49.152;11.918;2023-03-15T11:08:21;95985.84;;;5.08
13219;BMP180;6674;49.152;11.918;2023-03-15T11:10:56;95993.97;;;4.97
13219;BMP180;6674;49.152;11.918;2023-03-15T11:13:24;95990.38;;;4.92
13219;BMP180;6674;49.152;11.918;2023-03-15T11:15:58;95987.25;;;4.96
13219;BMP180;6674;49.152;11.918;2023-03-15T11:18:32;95977.78;;;4.90
13219;BMP180;6674;49.152;11.918;2023-03-15T11:21:01;95979.72;;;4.88
13219;BMP180;6674;49.152;11.918;2023-03-15T11:23:33;95985.56;;;4.68
13219;BMP180;6674;49.152;11.918;2023-03-15T11:26:01;95994.84;;;4.55
13219;BMP180;6674;49.152;11.918;2023-03-15T11:28:31;95982.84;;;4.55
13219;BMP180;6674;49.152;11.918;2023-03-15T11:30:58;95993.16;;;4.62
13219;BMP180;6674;49.152;11.918;2023-03-15T11:33:32;95997.72;;;4.80
13219;BMP180;6674;49.152;11.918;2023-03-15T11:36:06;95978.25;;;5.14
13219;BMP180;6674;49.152;11.918;2023-03-15T11:38:36;95978.69;;;5.39
13219;BMP180;6674;49.152;11.918;2023-03-15T11:41:15;95975.66;;;5.56
13219;BMP180;6674;49.152;11.918;2023-03-15T11:43:50;95970.25;;;5.45
13219;BMP180;6674;49.152;11.918;2023-03-15T11:46:24;95966.59;;;5.54
13219;BMP180;6674;49.152;11.918;2023-03-15T11:49:00;95954.66;;;5.40
13219;BMP180;6674;49.152;11.918;2023-03-15T11:51:31;95966.25;;;5.57
13219;BMP180;6674;49.152;11.918;2023-03-15T11:54:05;95962.31;;;5.60
13219;BMP180;6674;49.152;11.918;2023-03-15T11:56:47;95958.63;;;5.90
13219;BMP180;6674;49.152;11.918;2023-03-15T11:59:16;95962.69;;;6.05
13219;BMP180;6674;49.152;11.918;2023-03-15T12:01:46;95971.31;;;5.98
13219;BMP180;6674;49.152;11.918;2023-03-15T12:04:36;95957.91;;;5.96
13219;BMP180;6674;49.152;11.918;2023-03-15T12:07:05;95949.72;;;6.07
13219;BMP180;6674;49.152;11.918;2023-03-15T12:09:39;95955.81;;;6.06
13219;BMP180;6674;49.152;11.918;2023-03-15T12:12:34;95956.13;;;5.69
13219;BMP180;6674;49.152;11.918;2023-03-15T12:15:03;95957.16;;;5.75
13219;BMP180;6674;49.152;11.918;2023-03-15T12:17:41;95947.59;;;5.42
13219;BMP180;6674;49.152;11.918;2023-03-15T12:20:21;95968.31;;;5.26
13219;BMP180;6674;49.152;11.918;2023-03-15T12:22:51;95961.13;;;5.36
13219;BMP180;6674;49.152;11.918;2023-03-15T12:25:22;95965.25;;;5.37
13219;BMP180;6674;49.152;11.918;2023-03-15T12:27:54;95938.13;;;5.36
13219;BMP180;6674;49.152;11.918;2023-03-15T12:30:24;95954.53;;;5.27
13219;BMP180;6674;49.152;11.918;2023-03-15T12:32:55;95953.94;;;5.46
13219;BMP180;6674;49.152;11.918;2023-03-15T12:35:27;95959.97;;;5.38
13219;BMP180;6674;49.152;11.918;2023-03-15T12:37:55;95955.91;;;5.44
13219;BMP180;6674;49.152;11.918;2023-03-15T12:40:41;95951.97;;;5.48
13219;BMP180;6674;49.152;11.918;2023-03-15T12:43:14;95965.25;;;5.37
13219;BMP180;6674;49.152;11.918;2023-03-15T12:45:44;95965.28;;;5.16
13219;BMP180;6674;49.152;11.918;2023-03-15T12:48:28;95981.44;;;5.02
13219;BMP180;6674;49.152;11.918;2023-03-15T12:51:00;95977.19;;;4.88
13219;BMP180;6674;49.152;11.918;2023-03-15T12:53:47;95984.44;;;4.71
13219;BMP180;6674;49.152;11.918;2023-03-15T12:56:28;95979.78;;;4.45
13219;BMP180;6674;49.152;11.918;2023-03-15T12:59:02;95993.34;;;4.46
13219;BMP180;6674;49.152;11.918;2023-03-15T13:01:29;95985.50;;;4.33
13219;BMP180;6674;49.152;11.918;2023-03-15T13:03:57;95994.75;;;4.34
13219;BMP180;6674;49.152;11.918;2023-03-15T13:06:34;95983.69;;;4.27
13219;BMP180;6674;49.152;11.918;2023-03-15T13:09:10;95990.63;;;4.33
13219;BMP180;6674;49.152;11.918;2023-03-15T13:11:43;95989.47;;;4.35
13219;BMP180;6674;49.152;11.918;2023-03-15T13:14:27;95982.25;;;4.39
13219;BMP180;6674;49.152;11.918;2023-03-15T13:17:03;95985.75;;;4.38
13219;BMP180;6674;49.152;11.918;2023-03-15T13:19:37;95986.50;;;4.32
13219;BMP180;6674;49.152;11.918;2023-03-15T13:22:12;95990.63;;;4.33
13219;BMP180;6674;49.152;11.918;2023-03-15T13:24:45;96000.03;;;4.18
13219;BMP180;6674;49.152;11.918;2023-03-15T13:27:24;95994.94;;;4.32
13219;BMP180;6674;49.152;11.918;2023-03-15T13:29:54;95988.22;;;4.46
13219;BMP180;6674;49.152;11.918;2023-03-15T13:32:22;95988.50;;;4.51
13219;BMP180;6674;49.152;11.918;2023-03-15T13:34:49;95997.31;;;4.48
13219;BMP180;6674;49.152;11.918;2023-03-15T13:37:19;95998.53;;;4.38
13219;BMP180;6674;49.152;11.918;2023-03-15T13:39:55;95993.63;;;4.36
13219;BMP180;6674;49.152;11.918;2023-03-15T13:42:23;96003.22;;;4.49
13219;BMP180;6674;49.152;11.918;2023-03-15T13:45:18;95999.16;;;4.26
13219;BMP180;6674;49.152;11.918;2023-03-15T13:47:45;95999.44;;;4.16
13219;BMP180;6674;49.152;11.918;2023-03-15T13:50:13;95999.22;;;4.03
13219;BMP180;6674;49.152;11.918;2023-03-15T13:52:41;95998.38;;;4.11
13219;BMP180;6674;49.152;11.918;2023-03-15T13:55:11;95996.94;;;4.08
13219;BMP180;6674;49.152;11.918;2023-03-15T13:57:38;96002.78;;;4.02
13219;BMP180;6674;49.152;11.918;2023-03-15T14:00:08;96009.97;;;3.85
13219;BMP180;6674;49.152;11.918;2023-03-15T14:02:44;96007.88;;;3.66
13219;BMP180;6674;49.152;11.918;2023-03-15T14:05:14;96002.56;;;3.53
13219;BMP180;6674;49.152;11.918;2023-03-15T14:07:42;96008.00;;;3.50
13219;BMP180;6674;49.152;11.918;2023-03-15T14:10:22;96002.06;;;3.57
13219;BMP180;6674;49.152;11.918;2023-03-15T14:12:51;95998.47;;;3.66
13219;BMP180;6674;49.152;11.918;2023-03-15T14:15:34;96001.72;;;3.75
13219;BMP180;6674;49.152;11.918;2023-03-15T14:18:14;95992.72;;;3.86
13219;BMP180;6674;49.152;11.918;2023-03-15T14:20:43;95997.66;;;3.88
13219;BMP180;6674;49.152;11.918;2023-03-15T14:23:14;95998.16;;;3.84
13219;BMP180;6674;49.152;11.918;2023-03-15T14:25:41;96006.41;;;3.85
13219;BMP180;6674;49.152;11.918;2023-03-15T14:28:12;96000.00;;;3.53
13219;BMP180;6674;49.152;11.918;2023-03-15T14:30:41;95997.88;;;3.79
13219;BMP180;6674;49.152;11.918;2023-03-15T14:33:23;96008.19;;;3.85